TimeCST,TemperatureF,Dew PointF,Humidity,Sea Level PressureIn,VisibilityMPH,Wind Direction,Wind SpeedMPH,Gust SpeedMPH,PrecipitationIn,Events,Conditions,WindDirDegrees,DateUTC
12:53 AM,60.1,45.0,57,30.09,10.0,South,6.9,-,N/A,,Clear,170,2013-03-09 06:53:00
1:53 AM,59.0,45.0,60,30.09,10.0,South,5.8,-,N/A,,Clear,180,2013-03-09 07:53:00
2:53 AM,57.9,45.0,62,30.06,10.0,SSE,8.1,-,N/A,,Clear,160,2013-03-09 08:53:00
3:53 AM,57.9,43.0,58,30.04,10.0,SE,6.9,-,N/A,,Clear,130,2013-03-09 09:53:00
4:53 AM,57.0,44.1,62,30.03,10.0,SSE,9.2,-,N/A,,Clear,150,2013-03-09 10:53:00
5:53 AM,55.9,44.1,64,30.04,10.0,SE,6.9,-,N/A,,Clear,140,2013-03-09 11:53:00
6:53 AM,55.9,44.1,64,30.04,10.0,SE,8.1,-,N/A,,Scattered Clouds,140,2013-03-09 12:53:00
7:45 AM,57.2,44.6,63,30.05,10.0,SE,10.4,-,N/A,,Mostly Cloudy,140,2013-03-09 13:45:00
7:53 AM,57.0,45.0,64,30.05,10.0,SE,10.4,-,N/A,,Mostly Cloudy,140,2013-03-09 13:53:00
8:11 AM,57.2,44.6,63,30.05,10.0,SE,11.5,-,N/A,,Scattered Clouds,140,2013-03-09 14:11:00
8:31 AM,57.2,46.4,67,30.05,10.0,SE,12.7,-,N/A,,Mostly Cloudy,140,2013-03-09 14:31:00
8:53 AM,57.9,48.9,72,30.04,10.0,SE,13.8,-,N/A,,Mostly Cloudy,140,2013-03-09 14:53:00
9:23 AM,59.0,51.8,77,30.04,10.0,SE,13.8,-,N/A,,Mostly Cloudy,140,2013-03-09 15:23:00
9:53 AM,60.1,52.0,75,30.03,10.0,SSE,17.3,20.7,N/A,,Mostly Cloudy,150,2013-03-09 15:53:00
10:09 AM,62.6,53.6,72,30.03,10.0,SE,13.8,20.7,N/A,,Scattered Clouds,140,2013-03-09 16:09:00
10:53 AM,62.1,55.0,78,30.01,10.0,SSE,11.5,20.7,N/A,,Mostly Cloudy,150,2013-03-09 16:53:00
11:53 AM,64.0,55.9,75,29.99,10.0,SSE,15.0,-,N/A,,Overcast,150,2013-03-09 17:53:00
12:53 PM,64.0,55.9,75,29.96,10.0,SSE,18.4,-,N/A,,Overcast,160,2013-03-09 18:53:00
1:53 PM,64.0,55.9,75,29.92,10.0,SE,15.0,-,N/A,,Overcast,140,2013-03-09 19:53:00
2:53 PM,66.0,55.9,70,29.87,10.0,SE,13.8,23.0,N/A,,Mostly Cloudy,140,2013-03-09 20:53:00
3:33 PM,66.2,57.2,73,29.87,10.0,SE,15.0,20.7,N/A,,Overcast,140,2013-03-09 21:33:00
3:53 PM,66.9,57.0,70,29.87,10.0,SE,10.4,19.6,N/A,,Overcast,140,2013-03-09 21:53:00
4:53 PM,66.9,57.0,70,29.86,10.0,SSE,10.4,-,N/A,,Overcast,150,2013-03-09 22:53:00
5:53 PM,66.9,57.0,70,29.84,10.0,SE,10.4,-,N/A,,Partly Cloudy,140,2013-03-09 23:53:00
6:53 PM,64.9,57.0,75,29.81,10.0,SE,12.7,-,N/A,,Partly Cloudy,140,2013-03-10 00:53:00
7:53 PM,66.9,55.9,68,29.85,10.0,South,12.7,-,N/A,,Overcast,170,2013-03-10 01:53:00
8:53 PM,66.0,55.9,70,29.86,10.0,SSE,17.3,25.3,N/A,,Overcast,160,2013-03-10 02:53:00
9:37 PM,66.2,55.4,68,29.87,10.0,SSE,16.1,23.0,N/A,,Overcast,160,2013-03-10 03:37:00
9:53 PM,66.0,57.0,73,29.88,10.0,South,11.5,-,N/A,,Overcast,170,2013-03-10 03:53:00
10:18 PM,66.2,57.2,73,29.88,10.0,South,17.3,21.9,N/A,,Overcast,170,2013-03-10 04:18:00
10:31 PM,64.4,57.2,77,29.89,10.0,South,15.0,21.9,N/A,,Overcast,170,2013-03-10 04:31:00
10:38 PM,64.4,57.2,77,29.89,10.0,SSE,16.1,25.3,N/A,,Overcast,160,2013-03-10 04:38:00
10:53 PM,64.0,57.9,80,29.88,8.0,South,13.8,23.0,0.00,Rain,Light Rain,170,2013-03-10 04:53:00
11:38 PM,62.6,59.0,88,29.85,10.0,SSE,8.1,-,0.00,,Overcast,160,2013-03-10 05:38:00
11:53 PM,63.0,59.0,87,29.85,10.0,SSE,10.4,-,0.00,,Overcast,160,2013-03-10 05:53:00